Time;durP1;ratioP1;P1;durP2;ratioP2;P2;SDS_P1;SDS_P2;PMS_P1;PMS_P2;Temp;Humidity;BMP_temperature;BMP_pressure;BME280_temperature;BME280_humidity;BME280_pressure;Samples;Min_cycle;Max_cycle;Signal;HPM_P1;HPM_P2
2023/04/09 00:09:28;;;;;;;1999.90;999.90;;;8.00;99.90;;;;;;6718717;88;20193;-77
2023/04/09 00:19:28;;;;;;;1999.90;999.90;;;8.00;99.90;;;;;;6722021;88;20723;-78
2023/04/09 00:29:29;;;;;;;1999.90;999.90;;;8.10;99.90;;;;;;6714722;88;20216;-77
2023/04/09 00:39:30;;;;;;;1999.90;999.90;;;8.10;99.90;;;;;;6710178;88;20265;-77
2023/04/09 00:49:30;;;;;;;1999.90;999.90;;;8.00;99.90;;;;;;6711583;88;20217;-79
2023/04/09 00:59:31;;;;;;;1999.90;999.90;;;7.80;99.90;;;;;;6714206;88;20190;-77
2023/04/09 01:09:40;;;;;;;1999.90;999.90;;;7.70;99.90;;;;;;6713456;88;20215;-78
2023/04/09 01:19:53;;;;;;;1999.90;999.90;;;7.90;99.90;;;;;;6715539;88;20732;-77
2023/04/09 01:29:54;;;;;;;1999.90;999.90;;;7.90;99.90;;;;;;6710255;88;20214;-78
2023/04/09 01:39:55;;;;;;;1999.90;999.90;;;7.90;99.90;;;;;;6717233;88;20189;-78
2023/04/09 01:49:55;;;;;;;1999.90;999.90;;;7.90;99.90;;;;;;6715622;88;20202;-78
2023/04/09 01:59:56;;;;;;;1999.90;999.90;;;7.90;99.90;;;;;;6720288;88;20207;-78
2023/04/09 02:09:59;;;;;;;1999.90;999.90;;;8.00;99.90;;;;;;6713762;88;20186;-78
2023/04/09 02:20:00;;;;;;;1999.90;999.90;;;8.00;99.90;;;;;;6718008;88;20242;-78
2023/04/09 02:30:00;;;;;;;1999.90;999.90;;;7.90;99.90;;;;;;6729773;88;20220;-78
2023/04/09 02:40:01;;;;;;;1999.90;999.90;;;7.60;99.90;;;;;;6731257;88;20225;-78
2023/04/09 02:50:02;;;;;;;1999.90;999.90;;;7.40;99.90;;;;;;6718492;88;20188;-78
2023/04/09 03:00:03;;;;;;;1999.90;999.90;;;7.40;99.90;;;;;;6728280;88;20207;-79
2023/04/09 03:10:04;;;;;;;1999.90;999.90;;;7.30;99.90;;;;;;6722368;88;20193;-78
2023/04/09 03:20:06;;;;;;;1999.90;999.90;;;7.30;99.90;;;;;;6726947;88;20189;-76
2023/04/09 03:30:07;;;;;;;1999.90;999.90;;;7.30;99.90;;;;;;6712148;88;20191;-77
2023/04/09 03:40:08;;;;;;;1999.90;999.90;;;7.20;99.90;;;;;;6712383;88;20196;-75
2023/04/09 03:50:09;;;;;;;1999.90;999.90;;;7.20;99.90;;;;;;6713166;88;20202;-77
2023/04/09 04:00:10;;;;;;;1999.90;999.90;;;7.20;99.90;;;;;;6710570;88;20312;-76
2023/04/09 04:10:10;;;;;;;1999.90;999.90;;;7.10;99.90;;;;;;6715976;88;20224;-76
2023/04/09 04:20:11;;;;;;;1999.90;999.90;;;7.20;99.90;;;;;;6714977;88;20185;-77
2023/04/09 04:30:12;;;;;;;1999.90;999.90;;;7.10;99.90;;;;;;6710197;88;20819;-77
2023/04/09 04:40:12;;;;;;;1999.90;999.90;;;7.10;99.90;;;;;;6723947;88;20611;-78
2023/04/09 04:50:12;;;;;;;1999.90;999.90;;;7.10;99.90;;;;;;6730657;88;20281;-77
2023/04/09 05:00:13;;;;;;;1999.90;999.90;;;7.20;99.90;;;;;;6730084;88;20773;-77
2023/04/09 05:10:14;;;;;;;1999.90;999.90;;;7.00;99.90;;;;;;6724585;88;20193;-77
2023/04/09 05:20:14;;;;;;;1999.90;999.90;;;6.90;99.90;;;;;;6722090;88;20252;-76
2023/04/09 05:30:15;;;;;;;1999.90;999.90;;;6.80;99.90;;;;;;6715710;88;20544;-77
2023/04/09 05:40:15;;;;;;;1999.90;999.90;;;7.00;99.90;;;;;;6719202;88;20194;-78
2023/04/09 05:50:16;;;;;;;1999.90;999.90;;;7.00;99.90;;;;;;6716509;88;20204;-77
2023/04/09 06:00:17;;;;;;;1999.90;999.90;;;7.30;99.90;;;;;;6725769;88;20194;-77
2023/04/09 06:10:17;;;;;;;1999.90;999.90;;;7.40;99.90;;;;;;6724958;88;20681;-75
2023/04/09 06:20:18;;;;;;;1999.90;999.90;;;7.60;99.90;;;;;;6723448;88;20327;-77
2023/04/09 06:30:18;;;;;;;1999.90;999.90;;;7.80;99.90;;;;;;6713855;88;20612;-79
2023/04/09 06:40:21;;;;;;;1999.90;999.90;;;7.90;99.90;;;;;;6723976;88;20207;-78
2023/04/09 06:50:22;;;;;;;1999.90;999.90;;;7.90;99.90;;;;;;6736934;88;20189;-76
2023/04/09 07:00:23;;;;;;;1999.90;999.90;;;8.30;99.90;;;;;;6728305;88;20198;-78
2023/04/09 07:10:23;;;;;;;1999.90;999.90;;;8.50;99.90;;;;;;6722809;88;20608;-78
2023/04/09 07:20:24;;;;;;;1999.90;999.90;;;8.90;99.90;;;;;;6731876;88;20193;-78
2023/04/09 07:30:24;;;;;;;1999.90;999.90;;;9.70;99.90;;;;;;6719269;88;20719;-78
2023/04/09 07:40:25;;;;;;;1999.90;999.90;;;10.30;99.90;;;;;;6719671;88;20508;-78
2023/04/09 07:50:26;;;;;;;1999.90;999.90;;;11.10;99.90;;;;;;6716493;88;20717;-78
2023/04/09 08:00:27;;;;;;;1999.90;999.90;;;11.30;99.90;;;;;;6725380;88;20299;-78
2023/04/09 08:10:27;;;;;;;1999.90;999.90;;;11.80;99.90;;;;;;6718415;88;20188;-77
2023/04/09 08:20:28;;;;;;;1999.90;999.90;;;12.20;99.90;;;;;;6720982;88;20220;-77
2023/04/09 08:30:28;;;;;;;1999.90;999.90;;;12.90;99.90;;;;;;6713891;88;20307;-77
2023/04/09 08:40:34;;;;;;;1999.90;999.90;;;13.30;99.90;;;;;;6724301;88;20604;-78
2023/04/09 08:50:35;;;;;;;1999.90;999.90;;;14.20;99.90;;;;;;6716187;88;20320;-77
2023/04/09 09:00:36;;;;;;;1999.90;999.90;;;15.10;99.90;;;;;;6725728;88;20200;-77
2023/04/09 09:10:38;;;;;;;1999.90;999.90;;;14.90;99.90;;;;;;6724717;88;20202;-77
2023/04/09 09:20:39;;;;;;;1999.90;999.90;;;14.70;99.90;;;;;;6722983;88;20189;-77
2023/04/09 09:30:40;;;;;;;1999.90;999.90;;;14.80;99.90;;;;;;6711834;88;20177;-78
2023/04/09 09:40:41;;;;;;;1999.90;999.90;;;15.20;99.90;;;;;;6713237;88;20239;-77
2023/04/09 09:50:43;;;;;;;1999.90;999.90;;;14.90;99.90;;;;;;6721430;88;20178;-77
2023/04/09 10:00:47;;;;;;;1999.90;999.90;;;15.50;99.90;;;;;;6714940;88;20642;-77
2023/04/09 10:10:49;;;;;;;1999.90;999.90;;;15.00;99.90;;;;;;6716705;88;20207;-77
2023/04/09 10:21:04;;;;;;;1999.90;999.90;;;16.00;99.60;;;;;;6712313;88;20205;-77
2023/04/09 10:31:06;;;;;;;1999.90;999.90;;;15.60;99.30;;;;;;6708394;88;20192;-78
2023/04/09 10:41:12;;;;;;;1999.90;999.90;;;16.70;99.70;;;;;;6714235;88;20272;-76
2023/04/09 10:51:18;;;;;;;1999.90;999.90;;;14.90;99.70;;;;;;6728183;88;20267;-77
2023/04/09 11:01:22;;;;;;;1999.90;999.90;;;14.40;99.90;;;;;;6721360;88;20186;-78
2023/04/09 11:11:26;;;;;;;1999.90;999.90;;;14.60;99.90;;;;;;6737610;88;20204;-78
2023/04/09 11:21:27;;;;;;;1999.90;999.90;;;15.10;99.90;;;;;;6724578;88;20625;-78
2023/04/09 11:31:28;;;;;;;1999.90;999.90;;;14.50;99.20;;;;;;6726524;88;20272;-78
2023/04/09 11:41:36;;;;;;;1999.90;999.90;;;15.60;98.90;;;;;;6693761;88;20214;-78
2023/04/09 11:51:37;;;;;;;1999.90;999.90;;;15.60;99.40;;;;;;6710071;88;20196;-78
2023/04/09 12:01:38;;;;;;;1999.90;999.90;;;15.40;99.20;;;;;;6661345;88;20758;-78
2023/04/09 12:11:41;;;;;;;1999.90;999.90;;;16.10;97.70;;;;;;6645316;89;20208;-77
2023/04/09 12:21:49;;;;;;;1999.90;999.90;;;15.90;97.90;;;;;;6646426;89;20204;-76
2023/04/09 12:31:52;;;;;;;1999.90;999.90;;;15.60;97.10;;;;;;6655963;89;20635;-78
2023/04/09 12:41:53;;;;;;;1999.90;999.90;;;16.20;98.10;;;;;;6665413;89;20257;-78
2023/04/09 12:51:53;;;;;;;1999.90;999.90;;;16.60;97.20;;;;;;6653042;88;20304;-78
2023/04/09 13:01:54;;;;;;;1999.90;999.90;;;16.00;96.50;;;;;;6661640;88;20211;-78
2023/04/09 13:11:54;;;;;;;1999.90;999.90;;;15.70;98.40;;;;;;6647545;88;20250;-77
2023/04/09 13:21:55;;;;;;;1999.90;999.90;;;15.10;98.80;;;;;;6647515;88;20214;-77
2023/04/09 13:31:56;;;;;;;1999.90;999.90;;;15.40;97.70;;;;;;6634790;88;20593;-77
2023/04/09 13:41:57;;;;;;;1999.90;999.90;;;16.10;97.60;;;;;;6631038;89;20205;-77
2023/04/09 13:51:58;;;;;;;1999.90;999.90;;;16.20;96.20;;;;;;6632287;89;20192;-77
2023/04/09 14:01:59;;;;;;;1999.90;999.90;;;17.20;96.90;;;;;;6647450;88;20241;-78
2023/04/09 14:12:00;;;;;;;1999.90;999.90;;;16.40;95.40;;;;;;6646502;88;20317;-77
2023/04/09 14:22:01;;;;;;;1999.90;999.90;;;17.60;94.90;;;;;;6652992;88;20793;-78
2023/04/09 14:32:01;;;;;;;1999.90;999.90;;;16.70;94.30;;;;;;6709161;88;20488;-78
2023/04/09 14:42:02;;;;;;;1999.90;999.90;;;16.40;95.20;;;;;;6730077;88;20641;-77
2023/04/09 14:52:02;;;;;;;1999.90;999.90;;;15.50;95.10;;;;;;6727115;88;20182;-77
2023/04/09 15:02:03;;;;;;;1999.90;999.90;;;15.30;96.00;;;;;;6721861;88;20193;-77
2023/04/09 15:12:04;;;;;;;1999.90;999.90;;;15.50;94.90;;;;;;6720058;88;20201;-77
2023/04/09 15:22:04;;;;;;;1999.90;999.90;;;16.00;94.70;;;;;;6722216;88;20196;-79
2023/04/09 15:32:05;;;;;;;1999.90;999.90;;;16.10;94.80;;;;;;6712153;88;20246;-77
2023/04/09 15:42:05;;;;;;;1999.90;999.90;;;15.60;95.50;;;;;;6713640;88;20183;-78
2023/04/09 15:52:06;;;;;;;1999.90;999.90;;;15.90;95.00;;;;;;6707698;88;20321;-78
2023/04/09 16:02:06;;;;;;;1999.90;999.90;;;16.00;95.10;;;;;;6711618;88;20216;-77
2023/04/09 16:12:07;;;;;;;1999.90;999.90;;;15.50;95.40;;;;;;6707793;88;20321;-77
2023/04/09 16:22:08;;;;;;;1999.90;999.90;;;15.40;95.40;;;;;;6713365;88;20212;-77
2023/04/09 16:32:09;;;;;;;1999.90;999.90;;;15.10;95.70;;;;;;6720181;88;20216;-76
2023/04/09 16:42:11;;;;;;;1999.90;999.90;;;15.50;95.50;;;;;;6743051;88;20217;-77
2023/04/09 16:52:11;;;;;;;1999.90;999.90;;;15.00;95.30;;;;;;6734054;88;20236;-81
2023/04/09 17:02:12;;;;;;;1999.90;999.90;;;14.80;95.30;;;;;;6715193;88;20208;-77
2023/04/09 17:12:12;;;;;;;1999.90;999.90;;;14.50;95.80;;;;;;6725478;88;20328;-77
2023/04/09 17:22:13;;;;;;;1999.90;999.90;;;14.30;95.90;;;;;;6725485;88;20485;-77
2023/04/09 17:32:14;;;;;;;1999.90;999.90;;;14.10;95.80;;;;;;6722551;88;20649;-77
2023/04/09 17:42:15;;;;;;;1999.90;999.90;;;13.90;95.90;;;;;;6720341;88;20618;-77
2023/04/09 17:52:15;;;;;;;1999.90;999.90;;;13.60;96.30;;;;;;6728147;88;20574;-78
2023/04/09 18:02:16;;;;;;;1999.90;999.90;;;13.50;96.80;;;;;;6729518;88;20192;-78
2023/04/09 18:12:16;;;;;;;1999.90;999.90;;;13.20;97.20;;;;;;6730426;88;20193;-77
2023/04/09 18:22:17;;;;;;;1999.90;999.90;;;13.00;97.30;;;;;;6719054;88;20214;-78
2023/04/09 18:32:18;;;;;;;1999.90;999.90;;;12.80;97.30;;;;;;6714608;88;20182;-78
2023/04/09 18:42:18;;;;;;;1999.90;999.90;;;12.50;97.70;;;;;;6711468;88;20197;-78
2023/04/09 18:52:19;;;;;;;1999.90;999.90;;;12.30;98.30;;;;;;6711587;88;20739;-77
2023/04/09 19:02:19;;;;;;;1999.90;999.90;;;12.00;98.70;;;;;;6711943;88;20227;-77
2023/04/09 19:12:20;;;;;;;1999.90;999.90;;;11.90;99.30;;;;;;6709589;88;20190;-78
2023/04/09 19:22:21;;;;;;;1999.90;999.90;;;11.60;99.60;;;;;;6712475;88;20209;-80
2023/04/09 19:32:21;;;;;;;1999.90;999.90;;;11.40;99.90;;;;;;6713926;88;20177;-79
2023/04/09 19:42:22;;;;;;;1999.90;999.90;;;11.40;99.90;;;;;;6712692;88;20223;-78
2023/04/09 19:52:23;;;;;;;1999.90;999.90;;;11.10;99.90;;;;;;6704601;88;20209;-77
2023/04/09 20:02:24;;;;;;;1999.90;999.90;;;11.00;99.90;;;;;;6709063;88;20649;-78
2023/04/09 20:12:28;;;;;;;1999.90;999.90;;;10.90;99.90;;;;;;6709912;88;20214;-78
2023/04/09 20:22:28;;;;;;;1999.90;999.90;;;10.80;99.90;;;;;;6709410;88;21054;-77
2023/04/09 20:32:29;;;;;;;1999.90;999.90;;;10.40;99.90;;;;;;6723241;88;20222;-78
2023/04/09 20:42:30;;;;;;;1999.90;999.90;;;10.10;99.90;;;;;;6724108;88;20184;-78
2023/04/09 20:52:31;;;;;;;1999.90;999.90;;;10.00;99.90;;;;;;6726217;88;20190;-77
2023/04/09 21:02:31;;;;;;;1999.90;999.90;;;9.80;99.90;;;;;;6716168;88;20206;-77
2023/04/09 21:12:33;;;;;;;1999.90;999.90;;;9.60;99.90;;;;;;6701616;88;20651;-77
2023/04/09 21:22:34;;;;;;;1999.90;999.90;;;9.40;99.90;;;;;;6706943;88;20627;-77
2023/04/09 21:32:35;;;;;;;1999.90;999.90;;;9.20;99.90;;;;;;6708964;88;20319;-78
2023/04/09 21:42:36;;;;;;;1999.90;999.90;;;9.00;99.90;;;;;;6719347;88;20654;-78
2023/04/09 21:52:36;;;;;;;1999.90;999.90;;;8.80;99.90;;;;;;6701564;88;20209;-76
2023/04/09 22:02:37;;;;;;;1999.90;999.90;;;8.60;99.90;;;;;;6704294;88;20246;-77
2023/04/09 22:12:38;;;;;;;1999.90;999.90;;;8.50;99.90;;;;;;6707241;88;21022;-77
2023/04/09 22:22:40;;;;;;;1999.90;999.90;;;8.40;99.90;;;;;;6706492;88;20200;-77
2023/04/09 22:32:41;;;;;;;1999.90;999.90;;;8.10;99.90;;;;;;6721689;88;20227;-77
2023/04/09 22:42:42;;;;;;;1999.90;999.90;;;8.00;99.90;;;;;;6717997;88;20192;-77
2023/04/09 22:52:43;;;;;;;1999.90;999.90;;;7.90;99.90;;;;;;6693255;88;20799;-78
2023/04/09 23:02:46;;;;;;;1999.90;999.90;;;7.90;99.90;;;;;;6708578;88;20245;-77
2023/04/09 23:12:46;;;;;;;1999.90;999.90;;;7.90;99.90;;;;;;6688172;88;20726;-77
2023/04/09 23:22:47;;;;;;;1999.90;999.90;;;8.00;99.90;;;;;;6712348;88;20234;-77
2023/04/09 23:32:48;;;;;;;1999.90;999.90;;;7.80;99.90;;;;;;6722775;88;20190;-77
2023/04/09 23:42:49;;;;;;;1999.90;999.90;;;7.60;99.90;;;;;;6717646;88;20203;-76
2023/04/09 23:52:50;;;;;;;1999.90;999.90;;;7.40;99.90;;;;;;6708908;88;20715;-77
